createdAt,value
2017-09-10T00:01:58.571Z,9.73
2017-09-10T00:04:25.969Z,9.30
2017-09-10T00:06:53.351Z,9.13
2017-09-10T00:09:20.755Z,11.50
2017-09-10T00:11:48.151Z,10.27
2017-09-10T00:14:15.633Z,9.90
2017-09-10T00:16:43.022Z,9.77
2017-09-10T00:19:10.423Z,12.20
2017-09-10T00:21:37.814Z,10.83
2017-09-10T00:24:05.212Z,11.23
2017-09-10T00:26:32.602Z,13.00
2017-09-10T00:28:59.994Z,12.63
2017-09-10T00:31:27.382Z,11.70
2017-09-10T00:33:54.787Z,11.17
2017-09-10T00:36:22.226Z,13.50
2017-09-10T00:38:49.635Z,12.83
2017-09-10T00:41:17.023Z,15.03
2017-09-10T00:43:44.422Z,14.80
2017-09-10T00:46:11.846Z,15.53
2017-09-10T00:48:39.242Z,13.97
2017-09-10T00:51:06.639Z,16.70
2017-09-10T00:53:34.034Z,13.07
2017-09-10T00:56:01.435Z,16.97
2017-09-10T00:58:28.838Z,17.27
2017-09-10T01:00:56.231Z,22.20
2017-09-10T01:03:23.619Z,14.50
2017-09-10T01:05:51.021Z,13.67
2017-09-10T01:08:18.414Z,16.37
2017-09-10T01:10:45.810Z,14.20
2017-09-10T01:13:13.194Z,16.43
2017-09-10T01:15:40.606Z,13.60
2017-09-10T01:18:07.996Z,14.67
2017-09-10T01:20:35.411Z,24.43
2017-09-10T01:23:02.807Z,19.23
2017-09-10T01:25:30.205Z,15.27
2017-09-10T01:27:57.601Z,21.00
2017-09-10T01:30:25.007Z,15.50
2017-09-10T01:32:52.500Z,17.50
2017-09-10T01:35:19.959Z,13.27
2017-09-10T01:37:47.374Z,13.90
2017-09-10T01:40:14.753Z,13.80
2017-09-10T01:42:42.141Z,10.40
2017-09-10T01:45:09.530Z,11.53
2017-09-10T01:47:36.931Z,11.37
2017-09-10T01:50:04.323Z,11.30
2017-09-10T01:52:31.720Z,13.13
2017-09-10T01:54:59.190Z,13.13
2017-09-10T01:57:26.590Z,22.00
2017-09-10T01:59:54.782Z,15.00
2017-09-10T02:02:22.182Z,12.97
2017-09-10T02:04:49.647Z,14.90
2017-09-10T02:07:17.048Z,12.50
2017-09-10T02:09:44.438Z,14.33
2017-09-10T02:12:11.899Z,12.30
2017-09-10T02:14:39.298Z,19.57
2017-09-10T02:17:06.690Z,14.80
2017-09-10T02:19:34.078Z,17.73
2017-09-10T02:22:01.477Z,11.70
2017-09-10T02:24:28.862Z,13.27
2017-09-10T02:26:56.275Z,15.40
2017-09-10T02:29:23.689Z,14.10
2017-09-10T02:31:51.087Z,13.80
2017-09-10T02:34:18.474Z,11.80
2017-09-10T02:36:45.926Z,16.60
2017-09-10T02:39:13.322Z,12.60
2017-09-10T02:41:40.783Z,14.23
2017-09-10T02:44:08.184Z,14.57
2017-09-10T02:46:35.577Z,13.30
2017-09-10T02:49:02.970Z,10.40
2017-09-10T02:51:30.379Z,14.97
2017-09-10T02:53:57.868Z,12.60
2017-09-10T02:56:25.256Z,11.97
2017-09-10T02:58:52.654Z,15.30
2017-09-10T03:01:20.052Z,14.33
2017-09-10T03:03:47.442Z,11.67
2017-09-10T03:06:14.834Z,13.10
2017-09-10T03:08:42.231Z,13.63
2017-09-10T03:11:09.623Z,15.00
2017-09-10T03:13:37.022Z,14.87
2017-09-10T03:16:04.414Z,17.73
2017-09-10T03:18:31.814Z,13.80
2017-09-10T03:20:59.215Z,14.10
2017-09-10T03:23:26.600Z,13.77
2017-09-10T03:25:53.999Z,16.03
2017-09-10T03:28:21.407Z,19.43
2017-09-10T03:30:48.884Z,18.47
2017-09-10T03:33:16.277Z,20.20
2017-09-10T03:35:43.667Z,26.17
2017-09-10T03:38:11.065Z,27.73
2017-09-10T03:40:38.466Z,31.63
2017-09-10T03:43:05.966Z,28.73
2017-09-10T03:45:33.363Z,37.10
2017-09-10T03:48:00.755Z,32.40
2017-09-10T03:50:28.158Z,35.60
2017-09-10T03:52:55.559Z,25.40
2017-09-10T03:55:22.960Z,33.37
2017-09-10T03:57:50.356Z,34.33
2017-09-10T04:00:17.760Z,24.87
2017-09-10T04:02:45.147Z,40.50
2017-09-10T04:05:12.550Z,25.57
2017-09-10T04:07:39.951Z,25.10
2017-09-10T04:10:07.366Z,25.00
2017-09-10T04:12:34.763Z,30.70
2017-09-10T04:15:02.162Z,32.27
2017-09-10T04:17:29.645Z,23.30
2017-09-10T04:19:57.036Z,20.70
2017-09-10T04:22:24.438Z,26.80
2017-09-10T04:24:51.912Z,30.70
2017-09-10T04:27:19.314Z,28.30
2017-09-10T04:29:46.714Z,27.67
2017-09-10T04:32:14.123Z,27.30
2017-09-10T04:34:41.510Z,31.00
2017-09-10T04:37:08.915Z,31.67
2017-09-10T04:39:36.303Z,24.70
2017-09-10T04:42:03.704Z,38.10
2017-09-10T04:44:31.094Z,31.00
2017-09-10T04:46:58.507Z,33.93
2017-09-10T04:49:25.903Z,38.97
2017-09-10T04:51:53.294Z,26.77
2017-09-10T04:54:20.688Z,29.47
2017-09-10T04:56:48.095Z,26.77
2017-09-10T04:59:15.534Z,24.83
2017-09-10T05:01:42.931Z,35.17
2017-09-10T05:04:10.346Z,32.63
2017-09-10T05:06:37.750Z,39.50
2017-09-10T05:09:05.215Z,34.40
2017-09-10T05:11:32.620Z,37.03
2017-09-10T05:14:00.023Z,30.10
2017-09-10T05:16:27.418Z,33.97
2017-09-10T05:18:54.811Z,26.47
2017-09-10T05:21:22.223Z,38.37
2017-09-10T05:23:49.611Z,27.80
2017-09-10T05:26:17.050Z,40.63
2017-09-10T05:28:44.442Z,28.07
2017-09-10T05:31:11.838Z,35.78
2017-09-10T05:33:39.243Z,33.77
2017-09-10T05:36:06.634Z,28.30
2017-09-10T05:38:34.040Z,35.93
2017-09-10T05:41:01.430Z,35.60
2017-09-10T05:43:28.827Z,33.40
2017-09-10T05:45:56.219Z,36.27
2017-09-10T05:48:23.616Z,31.60
2017-09-10T05:50:51.005Z,33.00
2017-09-10T05:53:18.399Z,38.57
2017-09-10T05:55:45.915Z,33.67
2017-09-10T05:58:13.290Z,36.50
2017-09-10T06:00:40.700Z,36.80
2017-09-10T06:03:08.094Z,30.80
2017-09-10T06:05:35.502Z,33.90
2017-09-10T06:08:02.895Z,34.43
2017-09-10T06:10:30.294Z,39.80
2017-09-10T06:12:57.694Z,38.97
2017-09-10T06:15:25.090Z,39.73
2017-09-10T06:17:52.474Z,35.33
2017-09-10T06:20:19.876Z,35.03
2017-09-10T06:22:47.270Z,31.97
2017-09-10T06:25:14.670Z,40.03
2017-09-10T06:27:42.062Z,43.40
2017-09-10T06:30:09.458Z,31.60
2017-09-10T06:32:36.858Z,41.10
2017-09-10T06:35:04.260Z,36.87
2017-09-10T06:37:31.650Z,32.60
2017-09-10T06:39:59.051Z,37.07
2017-09-10T06:42:26.442Z,34.03
2017-09-10T06:44:53.922Z,36.33
2017-09-10T06:47:21.321Z,32.50
2017-09-10T06:49:48.736Z,35.13
2017-09-10T06:52:16.126Z,34.87
2017-09-10T06:54:43.523Z,37.57
2017-09-10T06:57:10.998Z,33.90
2017-09-10T06:59:38.450Z,37.23
2017-09-10T07:02:05.851Z,31.33
2017-09-10T07:04:33.247Z,34.90
2017-09-10T07:07:00.652Z,33.33
2017-09-10T07:09:28.051Z,36.03
2017-09-10T07:11:55.446Z,30.47
2017-09-10T07:14:22.835Z,29.10
2017-09-10T07:16:50.243Z,31.60
2017-09-10T07:19:17.633Z,36.70
2017-09-10T07:21:45.027Z,30.67
2017-09-10T07:24:12.421Z,33.53
2017-09-10T07:26:39.815Z,32.73
2017-09-10T07:29:07.198Z,31.73
2017-09-10T07:31:34.622Z,30.27
2017-09-10T07:34:02.022Z,32.33
2017-09-10T07:36:29.423Z,36.80
2017-09-10T07:38:56.963Z,29.10
2017-09-10T07:41:24.338Z,29.47
2017-09-10T07:43:51.743Z,36.90
2017-09-10T07:46:19.130Z,28.70
2017-09-10T07:48:46.522Z,33.77
2017-09-10T07:51:13.915Z,31.30
2017-09-10T07:53:41.387Z,33.17
2017-09-10T07:56:08.778Z,34.80
2017-09-10T07:58:36.192Z,38.37
2017-09-10T08:01:03.578Z,35.00
2017-09-10T08:03:30.978Z,30.77
2017-09-10T08:05:58.386Z,32.73
2017-09-10T08:08:25.778Z,33.27
2017-09-10T08:10:53.170Z,32.50
2017-09-10T08:13:20.566Z,31.93
2017-09-10T08:15:47.958Z,30.23
2017-09-10T08:18:15.383Z,31.50
2017-09-10T08:20:42.800Z,34.70
2017-09-10T08:23:10.187Z,29.67
2017-09-10T08:25:37.598Z,28.50
2017-09-10T08:28:05.000Z,30.37
2017-09-10T08:30:32.394Z,26.73
2017-09-10T08:32:59.781Z,24.47
2017-09-10T08:35:27.226Z,25.07
2017-09-10T08:37:54.610Z,22.23
2017-09-10T08:40:22.011Z,23.00
2017-09-10T08:42:49.407Z,21.53
2017-09-10T08:45:16.805Z,19.67
2017-09-10T08:47:45.167Z,15.53
2017-09-10T08:50:12.557Z,16.07
2017-09-10T08:52:39.951Z,16.27
2017-09-10T08:55:07.347Z,15.50
2017-09-10T08:57:34.738Z,13.83
2017-09-10T09:00:02.130Z,12.40
2017-09-10T09:02:29.519Z,12.27
2017-09-10T09:04:56.923Z,12.03
2017-09-10T09:07:24.365Z,11.53
2017-09-10T09:09:51.769Z,12.13
2017-09-10T09:12:19.155Z,11.30
2017-09-10T09:14:46.545Z,11.30
2017-09-10T09:17:13.943Z,10.70
2017-09-10T09:19:41.334Z,10.60
2017-09-10T09:22:09.326Z,9.90
2017-09-10T09:24:36.770Z,9.43
2017-09-10T09:27:04.230Z,9.40
2017-09-10T09:29:31.622Z,10.27
2017-09-10T09:31:59.011Z,8.87
2017-09-10T09:34:26.399Z,8.87
2017-09-10T09:36:53.800Z,9.93
2017-09-10T09:39:21.187Z,9.10
2017-09-10T09:41:48.587Z,8.20
2017-09-10T09:44:15.967Z,7.40
2017-09-10T09:46:43.354Z,7.87
2017-09-10T09:49:10.739Z,7.63
2017-09-10T09:51:38.134Z,7.40
2017-09-10T09:54:05.536Z,6.90
2017-09-10T09:56:32.995Z,5.40
2017-09-10T09:59:00.375Z,5.50
2017-09-10T10:01:27.751Z,5.43
2017-09-10T10:03:55.142Z,5.07
2017-09-10T10:06:22.534Z,5.60
2017-09-10T10:08:49.925Z,4.70
2017-09-10T10:11:17.298Z,4.93
2017-09-10T10:13:44.700Z,5.20
2017-09-10T10:16:12.082Z,5.50
2017-09-10T10:18:39.466Z,5.80
2017-09-10T10:21:06.847Z,5.20
2017-09-10T10:23:34.239Z,4.70
2017-09-10T10:26:01.629Z,4.50
2017-09-10T10:28:29.019Z,5.60
2017-09-10T10:30:56.403Z,4.57
2017-09-10T10:33:23.792Z,5.40
2017-09-10T10:35:51.171Z,5.20
2017-09-10T10:38:18.645Z,4.47
2017-09-10T10:40:46.107Z,6.07
2017-09-10T10:43:14.399Z,3.93
2017-09-10T10:45:41.774Z,5.70
2017-09-10T10:48:09.164Z,5.37
2017-09-10T10:50:36.580Z,5.87
2017-09-10T10:53:03.970Z,4.90
2017-09-10T10:55:31.354Z,5.53
2017-09-10T10:57:58.735Z,4.77
2017-09-10T11:00:26.119Z,4.83
2017-09-10T11:02:53.522Z,4.80
2017-09-10T11:05:20.941Z,3.80
2017-09-10T11:07:48.286Z,4.50
2017-09-10T11:10:15.671Z,3.03
2017-09-10T11:12:43.045Z,3.33
2017-09-10T11:15:10.435Z,3.37
2017-09-10T11:17:37.817Z,3.00
2017-09-10T11:20:05.208Z,3.27
2017-09-10T11:22:32.671Z,3.63
2017-09-10T11:25:00.058Z,3.47
2017-09-10T11:27:27.475Z,3.50
2017-09-10T11:29:54.867Z,3.10
2017-09-10T11:32:22.247Z,2.93
2017-09-10T11:34:49.650Z,2.40
2017-09-10T11:37:17.035Z,2.97
2017-09-10T11:39:44.430Z,3.27
2017-09-10T11:42:11.810Z,3.03
2017-09-10T11:44:39.276Z,2.83
2017-09-10T11:47:06.654Z,2.77
2017-09-10T11:49:34.041Z,2.67
2017-09-10T11:52:01.443Z,2.40
2017-09-10T11:54:28.819Z,2.60
2017-09-10T11:56:56.209Z,2.70
2017-09-10T11:59:23.606Z,2.40
2017-09-10T12:01:50.285Z,2.40
2017-09-10T12:04:17.667Z,2.67
2017-09-10T12:06:45.065Z,2.40
2017-09-10T12:09:12.528Z,1.97
2017-09-10T12:11:39.911Z,2.43
2017-09-10T12:14:07.298Z,1.83
2017-09-10T12:16:34.686Z,2.23
2017-09-10T12:19:02.063Z,2.30
2017-09-10T12:21:29.455Z,2.10
2017-09-10T12:23:56.834Z,2.97
2017-09-10T12:26:24.223Z,1.90
2017-09-10T12:28:51.658Z,2.30
2017-09-10T12:31:19.050Z,2.00
2017-09-10T12:33:46.471Z,2.30
2017-09-10T12:36:13.855Z,2.67
2017-09-10T12:38:41.244Z,2.90
2017-09-10T12:41:08.623Z,2.30
2017-09-10T12:43:36.013Z,2.73
2017-09-10T12:46:03.394Z,2.10
2017-09-10T12:48:30.806Z,2.23
2017-09-10T12:50:58.186Z,2.40
2017-09-10T12:53:25.579Z,2.20
2017-09-10T12:55:52.970Z,2.40
2017-09-10T12:58:20.366Z,2.80
2017-09-10T13:00:47.752Z,2.60
2017-09-10T13:03:15.197Z,3.47
2017-09-10T13:05:42.576Z,3.20
2017-09-10T13:08:09.982Z,3.97
2017-09-10T13:10:37.359Z,2.83
2017-09-10T13:13:04.743Z,3.17
2017-09-10T13:15:32.123Z,3.03
2017-09-10T13:17:59.513Z,3.50
2017-09-10T13:20:26.900Z,2.77
2017-09-10T13:22:54.287Z,2.87
2017-09-10T13:25:21.749Z,3.23
2017-09-10T13:27:49.144Z,2.57
2017-09-10T13:30:16.558Z,2.73
2017-09-10T13:32:43.939Z,2.77
2017-09-10T13:35:11.330Z,2.27
2017-09-10T13:37:38.735Z,2.20
2017-09-10T13:40:06.109Z,3.13
2017-09-10T13:42:33.493Z,3.00
2017-09-10T13:45:00.874Z,2.73
2017-09-10T13:47:28.354Z,2.43
2017-09-10T13:49:55.743Z,2.40
2017-09-10T13:52:23.134Z,2.80
2017-09-10T13:54:50.531Z,2.50
2017-09-10T13:57:17.975Z,2.13
2017-09-10T13:59:45.370Z,2.70
2017-09-10T14:02:12.754Z,2.40
2017-09-10T14:04:40.144Z,2.43
2017-09-10T14:07:07.532Z,2.80
2017-09-10T14:09:34.942Z,2.07
2017-09-10T14:12:02.327Z,1.93
2017-09-10T14:14:29.718Z,1.97
2017-09-10T14:16:57.098Z,3.00
2017-09-10T14:19:24.487Z,3.50
2017-09-10T14:21:51.874Z,2.00
2017-09-10T14:24:19.256Z,2.13
2017-09-10T14:26:46.743Z,2.20
2017-09-10T14:29:14.126Z,2.33
2017-09-10T14:31:41.539Z,3.00
2017-09-10T14:34:08.915Z,2.27
2017-09-10T14:36:36.303Z,2.00
2017-09-10T14:39:03.708Z,2.50
2017-09-10T14:41:31.099Z,1.73
2017-09-10T14:43:58.575Z,2.17
2017-09-10T14:46:25.963Z,2.10
2017-09-10T14:48:53.344Z,2.27
2017-09-10T14:51:20.738Z,2.03
2017-09-10T14:53:48.184Z,2.20
2017-09-10T14:56:15.558Z,1.60
2017-09-10T14:58:42.938Z,1.60
2017-09-10T15:01:10.326Z,1.77
2017-09-10T15:03:37.714Z,2.30
2017-09-10T15:06:05.099Z,2.03
2017-09-10T15:08:32.492Z,2.00
2017-09-10T15:10:59.875Z,2.43
2017-09-10T15:13:27.259Z,2.47
2017-09-10T15:15:54.639Z,2.03
2017-09-10T15:18:22.027Z,2.37
2017-09-10T15:20:49.416Z,2.40
2017-09-10T15:23:16.803Z,3.07
2017-09-10T15:25:44.187Z,2.60
2017-09-10T15:28:11.577Z,2.23
2017-09-10T15:30:38.987Z,2.23
2017-09-10T15:33:06.374Z,2.90
2017-09-10T15:35:33.754Z,2.27
2017-09-10T15:38:01.168Z,2.30
2017-09-10T15:40:28.542Z,1.80
2017-09-10T15:42:55.929Z,2.20
2017-09-10T15:45:23.307Z,2.80
2017-09-10T15:47:50.702Z,5.70
2017-09-10T15:50:18.085Z,2.50
2017-09-10T15:52:45.475Z,2.03
2017-09-10T15:55:12.864Z,2.30
2017-09-10T15:57:40.246Z,3.70
2017-09-10T16:00:07.675Z,2.30
2017-09-10T16:02:35.030Z,2.27
2017-09-10T16:05:02.428Z,2.33
2017-09-10T16:07:29.825Z,2.40
2017-09-10T16:09:57.206Z,2.10
2017-09-10T16:12:24.586Z,2.87
2017-09-10T16:14:51.984Z,2.20
2017-09-10T16:17:19.362Z,2.20
2017-09-10T16:19:46.782Z,1.90
2017-09-10T16:22:14.168Z,2.20
2017-09-10T16:24:41.559Z,2.60
2017-09-10T16:27:08.944Z,2.57
2017-09-10T16:29:36.330Z,1.67
2017-09-10T16:32:03.723Z,2.50
2017-09-10T16:34:31.143Z,2.23
2017-09-10T16:36:58.502Z,1.97
2017-09-10T16:39:25.891Z,1.40
2017-09-10T16:41:53.266Z,1.60
2017-09-10T16:44:20.658Z,2.30
2017-09-10T16:46:48.042Z,2.30
2017-09-10T16:49:15.438Z,1.63
2017-09-10T16:51:42.822Z,1.63
2017-09-10T16:54:10.203Z,2.20
2017-09-10T16:56:37.599Z,1.83
2017-09-10T16:59:04.995Z,2.37
2017-09-10T17:01:32.387Z,2.77
2017-09-10T17:03:59.762Z,1.73
2017-09-10T17:06:27.150Z,2.03
2017-09-10T17:08:54.531Z,1.73
2017-09-10T17:11:21.919Z,1.33
2017-09-10T17:13:49.304Z,2.20
2017-09-10T17:16:16.775Z,1.97
2017-09-10T17:18:44.210Z,2.10
2017-09-10T17:21:11.676Z,2.30
2017-09-10T17:23:39.051Z,2.87
2017-09-10T17:26:06.439Z,2.77
2017-09-10T17:28:33.819Z,2.50
2017-09-10T17:31:01.211Z,2.40
2017-09-10T17:33:28.771Z,3.43
2017-09-10T17:35:56.151Z,2.87
2017-09-10T17:38:23.540Z,3.30
2017-09-10T17:40:50.920Z,3.00
2017-09-10T17:43:18.380Z,2.87
2017-09-10T17:45:45.760Z,2.80
2017-09-10T17:48:13.155Z,3.97
2017-09-10T17:50:40.555Z,2.70
2017-09-10T17:53:07.940Z,3.00
2017-09-10T17:55:35.318Z,3.97
2017-09-10T17:58:02.702Z,2.93
2017-09-10T18:00:30.087Z,3.40
2017-09-10T18:02:57.471Z,3.47
2017-09-10T18:05:24.871Z,5.57
2017-09-10T18:07:52.263Z,3.90
2017-09-10T18:10:19.647Z,3.27
2017-09-10T18:12:47.038Z,3.37
2017-09-10T18:15:14.428Z,3.57
2017-09-10T18:17:42.823Z,2.63
2017-09-10T18:20:10.210Z,5.13
2017-09-10T18:22:37.686Z,5.33
2017-09-10T18:25:05.066Z,2.63
2017-09-10T18:27:32.466Z,2.80
2017-09-10T18:29:59.854Z,3.53
2017-09-10T18:32:27.318Z,4.43
2017-09-10T18:34:54.702Z,5.10
2017-09-10T18:37:22.128Z,3.33
2017-09-10T18:39:49.515Z,2.33
2017-09-10T18:42:16.895Z,2.90
2017-09-10T18:44:44.391Z,2.83
2017-09-10T18:47:11.766Z,2.90
2017-09-10T18:49:39.155Z,3.17
2017-09-10T18:52:06.553Z,3.50
2017-09-10T18:57:07.791Z,2.73
2017-09-10T18:59:35.183Z,3.00
2017-09-10T19:02:02.958Z,3.00
2017-09-10T19:04:30.347Z,2.63
2017-09-10T19:06:57.735Z,2.90
2017-09-10T19:09:25.133Z,2.63
2017-09-10T19:11:52.502Z,3.10
2017-09-10T19:14:19.890Z,2.30
2017-09-10T19:16:47.274Z,2.53
2017-09-10T19:19:14.726Z,2.27
2017-09-10T19:21:42.101Z,2.93
2017-09-10T19:24:09.490Z,2.50
2017-09-10T19:26:36.894Z,2.73
2017-09-10T19:29:04.279Z,4.33
2017-09-10T19:31:31.679Z,3.70
2017-09-10T19:33:59.069Z,2.30
2017-09-10T19:36:26.454Z,2.10
2017-09-10T19:38:53.831Z,2.37
2017-09-10T19:41:21.226Z,1.80
2017-09-10T19:43:48.598Z,1.70
2017-09-10T19:46:15.991Z,2.40
2017-09-10T19:48:43.371Z,1.80
2017-09-10T19:51:10.762Z,2.30
2017-09-10T19:53:38.142Z,1.67
2017-09-10T19:56:05.527Z,1.80
2017-09-10T19:58:32.906Z,1.80
2017-09-10T20:01:00.294Z,2.23
2017-09-10T20:03:27.675Z,2.10
2017-09-10T20:05:55.058Z,1.70
2017-09-10T20:08:22.444Z,1.60
2017-09-10T20:10:49.835Z,1.70
2017-09-10T20:13:17.214Z,2.20
2017-09-10T20:15:44.597Z,2.30
2017-09-10T20:18:11.982Z,2.10
2017-09-10T20:20:39.372Z,1.90
2017-09-10T20:23:06.758Z,1.90
2017-09-10T20:25:34.138Z,2.00
2017-09-10T20:28:01.523Z,1.97
2017-09-10T20:30:28.935Z,1.90
2017-09-10T20:32:56.387Z,1.80
2017-09-10T20:35:23.771Z,2.30
2017-09-10T20:37:51.163Z,1.70
2017-09-10T20:40:18.551Z,2.00
2017-09-10T20:42:45.939Z,2.40
2017-09-10T20:45:13.327Z,2.00
2017-09-10T20:47:40.715Z,1.53
2017-09-10T20:50:08.099Z,1.90
2017-09-10T20:52:35.488Z,2.03
2017-09-10T20:55:02.867Z,1.70
2017-09-10T20:57:30.260Z,1.90
2017-09-10T20:59:57.658Z,1.97
2017-09-10T21:02:25.064Z,1.80
2017-09-10T21:04:52.506Z,2.00
2017-09-10T21:07:19.957Z,1.97
2017-09-10T21:09:47.420Z,1.63
2017-09-10T21:12:14.871Z,1.80
2017-09-10T21:14:42.266Z,1.60
2017-09-10T21:17:09.650Z,2.20
2017-09-10T21:19:37.042Z,1.93
2017-09-10T21:22:04.423Z,1.83
2017-09-10T21:24:31.841Z,1.70
2017-09-10T21:26:59.222Z,1.77
2017-09-10T21:29:26.610Z,1.70
2017-09-10T21:31:54.006Z,1.73
2017-09-10T21:34:21.383Z,2.87
2017-09-10T21:36:48.767Z,1.93
2017-09-10T21:39:16.150Z,1.63
2017-09-10T21:41:43.541Z,1.53
2017-09-10T21:44:10.931Z,1.60
2017-09-10T21:46:38.316Z,2.20
2017-09-10T21:49:05.699Z,1.73
2017-09-10T21:51:33.082Z,2.03
2017-09-10T21:54:00.507Z,1.57
2017-09-10T21:56:27.886Z,1.40
2017-09-10T21:58:55.266Z,1.47
2017-09-10T22:01:22.658Z,1.47
2017-09-10T22:03:50.039Z,1.73
2017-09-10T22:06:17.418Z,1.93
2017-09-10T22:08:44.809Z,1.60
2017-09-10T22:11:12.298Z,1.60
2017-09-10T22:13:39.758Z,1.70
2017-09-10T22:16:07.148Z,2.07
2017-09-10T22:18:34.525Z,1.70
2017-09-10T22:21:01.919Z,1.60
2017-09-10T22:23:29.299Z,1.67
2017-09-10T22:25:56.768Z,1.80
2017-09-10T22:28:24.242Z,1.87
2017-09-10T22:30:51.647Z,1.53
2017-09-10T22:33:19.106Z,1.77
2017-09-10T22:35:46.491Z,1.80
2017-09-10T22:38:13.866Z,1.30
2017-09-10T22:40:41.266Z,2.13
2017-09-10T22:43:08.727Z,2.07
2017-09-10T22:45:36.119Z,1.57
2017-09-10T22:48:03.502Z,1.87
2017-09-10T22:50:30.894Z,1.73
2017-09-10T22:52:58.286Z,2.27
2017-09-10T22:55:25.710Z,2.00
2017-09-10T22:57:53.097Z,3.07
2017-09-10T23:00:20.474Z,1.43
2017-09-10T23:02:47.863Z,2.03
2017-09-10T23:05:15.247Z,1.60
2017-09-10T23:07:42.645Z,1.83
2017-09-10T23:10:10.023Z,2.10
2017-09-10T23:12:37.407Z,1.27
2017-09-10T23:15:04.794Z,1.57
2017-09-10T23:17:32.198Z,2.17
2017-09-10T23:19:59.587Z,1.60
2017-09-10T23:22:27.027Z,1.93
2017-09-10T23:24:54.406Z,2.23
2017-09-10T23:27:21.803Z,1.40
2017-09-10T23:29:49.195Z,1.73
2017-09-10T23:32:16.587Z,2.20
2017-09-10T23:34:43.979Z,2.57
2017-09-10T23:37:11.380Z,2.10
2017-09-10T23:39:38.764Z,2.50
2017-09-10T23:42:06.253Z,1.90
2017-09-10T23:44:33.650Z,2.37
2017-09-10T23:47:01.036Z,2.70
2017-09-10T23:49:28.422Z,1.80
2017-09-10T23:51:55.807Z,1.90
2017-09-10T23:54:23.191Z,2.60
2017-09-10T23:56:50.570Z,2.40
2017-09-10T23:59:17.955Z,2.20
